sensor_id;sensor_type;location;lat;lon;timestamp;P1;durP1;ratioP1;P2;durP2;ratioP2
47713;SDS011;33475;46.614;13.888;2024-02-14T00:00:38;4.28;;;2.33;;
47713;SDS011;33475;46.614;13.888;2024-02-14T00:03:06;3.85;;;2.92;;
47713;SDS011;33475;46.614;13.888;2024-02-14T00:05:32;4.65;;;2.67;;
47713;SDS011;33475;46.614;13.888;2024-02-14T00:07:58;7.00;;;3.53;;
47713;SDS011;33475;46.614;13.888;2024-02-14T00:10:24;4.28;;;2.70;;
47713;SDS011;33475;46.614;13.888;2024-02-14T00:12:51;4.03;;;2.55;;
47713;SDS011;33475;46.614;13.888;2024-02-14T00:15:17;4.50;;;2.67;;
47713;SDS011;33475;46.614;13.888;2024-02-14T00:17:44;3.30;;;2.50;;
47713;SDS011;33475;46.614;13.888;2024-02-14T00:20:10;3.13;;;2.25;;
47713;SDS011;33475;46.614;13.888;2024-02-14T00:22:39;5.25;;;3.08;;
47713;SDS011;33475;46.614;13.888;2024-02-14T00:25:05;5.82;;;3.05;;
47713;SDS011;33475;46.614;13.888;2024-02-14T00:27:32;4.68;;;2.45;;
47713;SDS011;33475;46.614;13.888;2024-02-14T00:29:58;8.18;;;2.40;;
47713;SDS011;33475;46.614;13.888;2024-02-14T00:32:24;5.15;;;2.53;;
47713;SDS011;33475;46.614;13.888;2024-02-14T00:34:51;3.42;;;2.55;;
47713;SDS011;33475;46.614;13.888;2024-02-14T00:37:18;2.33;;;1.98;;
47713;SDS011;33475;46.614;13.888;2024-02-14T00:39:45;3.40;;;2.13;;
47713;SDS011;33475;46.614;13.888;2024-02-14T00:42:13;3.22;;;2.28;;
47713;SDS011;33475;46.614;13.888;2024-02-14T00:44:39;3.13;;;2.47;;
47713;SDS011;33475;46.614;13.888;2024-02-14T00:47:06;4.32;;;2.22;;
47713;SDS011;33475;46.614;13.888;2024-02-14T00:49:34;3.17;;;1.88;;
47713;SDS011;33475;46.614;13.888;2024-02-14T00:52:01;5.47;;;2.70;;
47713;SDS011;33475;46.614;13.888;2024-02-14T00:54:27;3.42;;;2.15;;
47713;SDS011;33475;46.614;13.888;2024-02-14T00:56:54;6.03;;;2.55;;
47713;SDS011;33475;46.614;13.888;2024-02-14T00:59:20;2.67;;;2.20;;
47713;SDS011;33475;46.614;13.888;2024-02-14T01:01:46;5.70;;;2.55;;
47713;SDS011;33475;46.614;13.888;2024-02-14T01:04:12;2.47;;;2.13;;
47713;SDS011;33475;46.614;13.888;2024-02-14T01:06:38;4.20;;;1.75;;
47713;SDS011;33475;46.614;13.888;2024-02-14T01:09:05;2.75;;;1.90;;
47713;SDS011;33475;46.614;13.888;2024-02-14T01:11:31;3.08;;;2.55;;
47713;SDS011;33475;46.614;13.888;2024-02-14T01:13:57;5.95;;;2.13;;
47713;SDS011;33475;46.614;13.888;2024-02-14T01:16:24;8.73;;;1.88;;
47713;SDS011;33475;46.614;13.888;2024-02-14T01:18:51;7.85;;;2.15;;
47713;SDS011;33475;46.614;13.888;2024-02-14T01:21:17;2.67;;;1.65;;
47713;SDS011;33475;46.614;13.888;2024-02-14T01:23:43;7.70;;;1.98;;
47713;SDS011;33475;46.614;13.888;2024-02-14T01:26:09;3.92;;;2.00;;
47713;SDS011;33475;46.614;13.888;2024-02-14T01:28:36;2.95;;;2.10;;
47713;SDS011;33475;46.614;13.888;2024-02-14T01:31:03;20.65;;;2.88;;
47713;SDS011;33475;46.614;13.888;2024-02-14T01:33:29;12.90;;;2.78;;
47713;SDS011;33475;46.614;13.888;2024-02-14T01:35:56;11.60;;;2.60;;
47713;SDS011;33475;46.614;13.888;2024-02-14T01:38:22;4.75;;;2.33;;
47713;SDS011;33475;46.614;13.888;2024-02-14T01:40:49;11.70;;;2.28;;
47713;SDS011;33475;46.614;13.888;2024-02-14T01:43:15;6.32;;;2.20;;
47713;SDS011;33475;46.614;13.888;2024-02-14T01:45:41;5.40;;;2.30;;
47713;SDS011;33475;46.614;13.888;2024-02-14T01:48:08;3.75;;;2.17;;
47713;SDS011;33475;46.614;13.888;2024-02-14T01:50:35;10.35;;;2.00;;
47713;SDS011;33475;46.614;13.888;2024-02-14T01:53:01;3.90;;;2.10;;
47713;SDS011;33475;46.614;13.888;2024-02-14T01:55:28;3.00;;;2.17;;
47713;SDS011;33475;46.614;13.888;2024-02-14T01:57:55;2.22;;;1.55;;
47713;SDS011;33475;46.614;13.888;2024-02-14T02:00:21;3.28;;;2.03;;
47713;SDS011;33475;46.614;13.888;2024-02-14T02:02:47;2.72;;;1.80;;
47713;SDS011;33475;46.614;13.888;2024-02-14T02:05:14;3.92;;;2.22;;
47713;SDS011;33475;46.614;13.888;2024-02-14T02:07:41;3.53;;;1.98;;
47713;SDS011;33475;46.614;13.888;2024-02-14T02:10:09;3.47;;;2.00;;
47713;SDS011;33475;46.614;13.888;2024-02-14T02:12:38;2.72;;;1.90;;
47713;SDS011;33475;46.614;13.888;2024-02-14T02:15:07;3.83;;;2.55;;
47713;SDS011;33475;46.614;13.888;2024-02-14T02:17:40;3.38;;;1.77;;
47713;SDS011;33475;46.614;13.888;2024-02-14T02:20:06;2.67;;;1.75;;
47713;SDS011;33475;46.614;13.888;2024-02-14T02:22:34;3.05;;;1.40;;
47713;SDS011;33475;46.614;13.888;2024-02-14T02:25:03;2.47;;;1.67;;
47713;SDS011;33475;46.614;13.888;2024-02-14T02:27:33;3.03;;;1.45;;
47713;SDS011;33475;46.614;13.888;2024-02-14T02:30:04;2.10;;;1.20;;
47713;SDS011;33475;46.614;13.888;2024-02-14T02:32:30;3.33;;;1.45;;
47713;SDS011;33475;46.614;13.888;2024-02-14T02:34:56;4.88;;;1.75;;
47713;SDS011;33475;46.614;13.888;2024-02-14T02:37:23;2.83;;;1.35;;
47713;SDS011;33475;46.614;13.888;2024-02-14T02:39:49;2.38;;;1.83;;
47713;SDS011;33475;46.614;13.888;2024-02-14T02:42:16;2.15;;;1.65;;
47713;SDS011;33475;46.614;13.888;2024-02-14T02:44:46;3.95;;;2.17;;
47713;SDS011;33475;46.614;13.888;2024-02-14T02:47:13;2.38;;;1.75;;
47713;SDS011;33475;46.614;13.888;2024-02-14T02:49:42;5.60;;;2.05;;
47713;SDS011;33475;46.614;13.888;2024-02-14T02:52:12;2.80;;;1.92;;
47713;SDS011;33475;46.614;13.888;2024-02-14T02:54:38;2.97;;;1.95;;
47713;SDS011;33475;46.614;13.888;2024-02-14T02:57:11;2.35;;;1.88;;
47713;SDS011;33475;46.614;13.888;2024-02-14T02:59:38;2.63;;;1.42;;
47713;SDS011;33475;46.614;13.888;2024-02-14T03:02:08;1.73;;;1.38;;
47713;SDS011;33475;46.614;13.888;2024-02-14T03:04:37;2.33;;;1.20;;
47713;SDS011;33475;46.614;13.888;2024-02-14T03:07:04;3.30;;;1.67;;
47713;SDS011;33475;46.614;13.888;2024-02-14T03:09:33;7.22;;;1.90;;
47713;SDS011;33475;46.614;13.888;2024-02-14T03:11:59;6.35;;;3.55;;
47713;SDS011;33475;46.614;13.888;2024-02-14T03:14:28;3.17;;;2.63;;
47713;SDS011;33475;46.614;13.888;2024-02-14T03:16:58;3.80;;;2.35;;
47713;SDS011;33475;46.614;13.888;2024-02-14T03:19:25;2.55;;;2.08;;
47713;SDS011;33475;46.614;13.888;2024-02-14T03:21:55;2.60;;;1.60;;
47713;SDS011;33475;46.614;13.888;2024-02-14T03:24:22;3.55;;;2.22;;
47713;SDS011;33475;46.614;13.888;2024-02-14T03:26:52;3.15;;;1.77;;
47713;SDS011;33475;46.614;13.888;2024-02-14T03:29:19;2.85;;;1.77;;
47713;SDS011;33475;46.614;13.888;2024-02-14T03:31:48;2.50;;;1.60;;
47713;SDS011;33475;46.614;13.888;2024-02-14T03:34:14;3.97;;;2.00;;
47713;SDS011;33475;46.614;13.888;2024-02-14T03:36:40;4.00;;;1.67;;
47713;SDS011;33475;46.614;13.888;2024-02-14T03:39:08;9.68;;;3.00;;
47713;SDS011;33475;46.614;13.888;2024-02-14T03:41:34;5.85;;;1.85;;
47713;SDS011;33475;46.614;13.888;2024-02-14T03:44:00;2.58;;;1.80;;
47713;SDS011;33475;46.614;13.888;2024-02-14T03:46:28;4.38;;;2.08;;
47713;SDS011;33475;46.614;13.888;2024-02-14T03:48:55;4.82;;;2.17;;
47713;SDS011;33475;46.614;13.888;2024-02-14T03:51:25;2.33;;;1.80;;
47713;SDS011;33475;46.614;13.888;2024-02-14T03:53:51;2.67;;;1.73;;
47713;SDS011;33475;46.614;13.888;2024-02-14T03:56:17;6.10;;;1.90;;
47713;SDS011;33475;46.614;13.888;2024-02-14T03:58:43;7.35;;;1.98;;
47713;SDS011;33475;46.614;13.888;2024-02-14T04:01:11;6.40;;;2.20;;
47713;SDS011;33475;46.614;13.888;2024-02-14T04:03:37;4.60;;;2.90;;
47713;SDS011;33475;46.614;13.888;2024-02-14T04:06:04;10.30;;;4.90;;
47713;SDS011;33475;46.614;13.888;2024-02-14T04:08:30;14.27;;;7.00;;
47713;SDS011;33475;46.614;13.888;2024-02-14T04:10:56;9.45;;;3.42;;
47713;SDS011;33475;46.614;13.888;2024-02-14T04:13:23;6.15;;;2.70;;
47713;SDS011;33475;46.614;13.888;2024-02-14T04:15:50;3.47;;;2.25;;
47713;SDS011;33475;46.614;13.888;2024-02-14T04:18:16;7.63;;;1.83;;
47713;SDS011;33475;46.614;13.888;2024-02-14T04:20:43;3.05;;;1.92;;
47713;SDS011;33475;46.614;13.888;2024-02-14T04:23:09;2.92;;;2.47;;
47713;SDS011;33475;46.614;13.888;2024-02-14T04:25:35;4.47;;;2.50;;
47713;SDS011;33475;46.614;13.888;2024-02-14T04:28:02;2.80;;;2.05;;
47713;SDS011;33475;46.614;13.888;2024-02-14T04:30:29;11.60;;;5.60;;
47713;SDS011;33475;46.614;13.888;2024-02-14T04:32:55;10.93;;;5.00;;
47713;SDS011;33475;46.614;13.888;2024-02-14T04:35:21;5.78;;;2.25;;
47713;SDS011;33475;46.614;13.888;2024-02-14T04:37:47;7.70;;;2.78;;
47713;SDS011;33475;46.614;13.888;2024-02-14T04:40:14;2.55;;;1.77;;
47713;SDS011;33475;46.614;13.888;2024-02-14T04:42:41;13.52;;;3.80;;
47713;SDS011;33475;46.614;13.888;2024-02-14T04:45:07;11.02;;;3.35;;
47713;SDS011;33475;46.614;13.888;2024-02-14T04:47:34;6.43;;;2.90;;
47713;SDS011;33475;46.614;13.888;2024-02-14T04:50:00;7.55;;;3.10;;
47713;SDS011;33475;46.614;13.888;2024-02-14T04:52:29;4.38;;;2.90;;
47713;SDS011;33475;46.614;13.888;2024-02-14T04:54:55;8.93;;;3.55;;
47713;SDS011;33475;46.614;13.888;2024-02-14T04:57:21;5.50;;;2.60;;
47713;SDS011;33475;46.614;13.888;2024-02-14T04:59:48;8.35;;;4.18;;
47713;SDS011;33475;46.614;13.888;2024-02-14T05:02:14;7.10;;;3.63;;
47713;SDS011;33475;46.614;13.888;2024-02-14T05:04:41;8.23;;;3.60;;
47713;SDS011;33475;46.614;13.888;2024-02-14T05:07:07;10.98;;;4.05;;
47713;SDS011;33475;46.614;13.888;2024-02-14T05:09:33;8.23;;;4.53;;
47713;SDS011;33475;46.614;13.888;2024-02-14T05:11:59;18.60;;;6.45;;
47713;SDS011;33475;46.614;13.888;2024-02-14T05:14:26;17.60;;;5.18;;
47713;SDS011;33475;46.614;13.888;2024-02-14T05:16:56;7.30;;;4.00;;
47713;SDS011;33475;46.614;13.888;2024-02-14T05:19:22;6.65;;;3.53;;
47713;SDS011;33475;46.614;13.888;2024-02-14T05:21:49;5.38;;;2.88;;
47713;SDS011;33475;46.614;13.888;2024-02-14T05:24:15;5.93;;;3.05;;
47713;SDS011;33475;46.614;13.888;2024-02-14T05:26:41;6.97;;;3.00;;
47713;SDS011;33475;46.614;13.888;2024-02-14T05:29:07;4.53;;;2.80;;
47713;SDS011;33475;46.614;13.888;2024-02-14T05:31:44;5.72;;;2.97;;
47713;SDS011;33475;46.614;13.888;2024-02-14T05:34:10;8.63;;;3.30;;
47713;SDS011;33475;46.614;13.888;2024-02-14T05:36:36;6.68;;;3.22;;
47713;SDS011;33475;46.614;13.888;2024-02-14T05:39:03;7.30;;;2.40;;
47713;SDS011;33475;46.614;13.888;2024-02-14T05:41:33;8.73;;;6.70;;
47713;SDS011;33475;46.614;13.888;2024-02-14T05:43:59;5.60;;;3.40;;
47713;SDS011;33475;46.614;13.888;2024-02-14T05:46:26;4.20;;;1.75;;
47713;SDS011;33475;46.614;13.888;2024-02-14T05:48:53;4.95;;;3.47;;
47713;SDS011;33475;46.614;13.888;2024-02-14T05:51:20;19.52;;;5.53;;
47713;SDS011;33475;46.614;13.888;2024-02-14T05:53:46;17.08;;;5.20;;
47713;SDS011;33475;46.614;13.888;2024-02-14T05:56:13;7.88;;;4.25;;
47713;SDS011;33475;46.614;13.888;2024-02-14T05:58:39;7.60;;;5.13;;
47713;SDS011;33475;46.614;13.888;2024-02-14T06:01:05;7.10;;;3.25;;
47713;SDS011;33475;46.614;13.888;2024-02-14T06:03:31;5.93;;;2.83;;
47713;SDS011;33475;46.614;13.888;2024-02-14T06:05:58;9.95;;;4.07;;
47713;SDS011;33475;46.614;13.888;2024-02-14T06:08:24;8.93;;;3.97;;
47713;SDS011;33475;46.614;13.888;2024-02-14T06:10:52;7.93;;;4.38;;
47713;SDS011;33475;46.614;13.888;2024-02-14T06:13:18;10.57;;;5.45;;
47713;SDS011;33475;46.614;13.888;2024-02-14T06:15:45;6.85;;;3.95;;
47713;SDS011;33475;46.614;13.888;2024-02-14T06:18:11;6.22;;;3.85;;
47713;SDS011;33475;46.614;13.888;2024-02-14T06:20:37;7.63;;;4.68;;
47713;SDS011;33475;46.614;13.888;2024-02-14T06:23:04;8.68;;;4.25;;
47713;SDS011;33475;46.614;13.888;2024-02-14T06:25:33;7.88;;;4.25;;
47713;SDS011;33475;46.614;13.888;2024-02-14T06:27:59;11.50;;;4.50;;
47713;SDS011;33475;46.614;13.888;2024-02-14T06:30:25;9.20;;;4.80;;
47713;SDS011;33475;46.614;13.888;2024-02-14T06:32:51;8.93;;;5.13;;
47713;SDS011;33475;46.614;13.888;2024-02-14T06:35:17;14.07;;;8.30;;
47713;SDS011;33475;46.614;13.888;2024-02-14T06:37:46;11.25;;;5.90;;
47713;SDS011;33475;46.614;13.888;2024-02-14T06:40:12;12.68;;;7.63;;
47713;SDS011;33475;46.614;13.888;2024-02-14T06:42:38;12.38;;;5.18;;
47713;SDS011;33475;46.614;13.888;2024-02-14T06:45:05;17.30;;;4.68;;
47713;SDS011;33475;46.614;13.888;2024-02-14T06:47:32;16.08;;;5.97;;
47713;SDS011;33475;46.614;13.888;2024-02-14T06:49:58;10.93;;;5.45;;
47713;SDS011;33475;46.614;13.888;2024-02-14T06:52:24;14.00;;;7.57;;
47713;SDS011;33475;46.614;13.888;2024-02-14T06:54:50;11.43;;;6.85;;
47713;SDS011;33475;46.614;13.888;2024-02-14T06:57:16;15.85;;;6.88;;
47713;SDS011;33475;46.614;13.888;2024-02-14T06:59:43;14.25;;;7.57;;
47713;SDS011;33475;46.614;13.888;2024-02-14T07:02:09;16.27;;;9.02;;
47713;SDS011;33475;46.614;13.888;2024-02-14T07:04:35;14.75;;;9.18;;
47713;SDS011;33475;46.614;13.888;2024-02-14T07:07:02;15.10;;;7.15;;
47713;SDS011;33475;46.614;13.888;2024-02-14T07:09:28;22.67;;;10.65;;
47713;SDS011;33475;46.614;13.888;2024-02-14T07:11:54;22.33;;;10.93;;
47713;SDS011;33475;46.614;13.888;2024-02-14T07:14:24;20.17;;;11.45;;
47713;SDS011;33475;46.614;13.888;2024-02-14T07:16:50;16.02;;;7.85;;
47713;SDS011;33475;46.614;13.888;2024-02-14T07:19:17;10.88;;;7.72;;
47713;SDS011;33475;46.614;13.888;2024-02-14T07:21:43;18.75;;;11.75;;
47713;SDS011;33475;46.614;13.888;2024-02-14T07:24:09;10.02;;;5.90;;
47713;SDS011;33475;46.614;13.888;2024-02-14T07:26:36;11.95;;;5.88;;
47713;SDS011;33475;46.614;13.888;2024-02-14T07:29:02;14.50;;;5.65;;
47713;SDS011;33475;46.614;13.888;2024-02-14T07:31:31;12.82;;;5.15;;
47713;SDS011;33475;46.614;13.888;2024-02-14T07:33:59;11.32;;;6.20;;
47713;SDS011;33475;46.614;13.888;2024-02-14T07:36:28;19.05;;;5.95;;
47713;SDS011;33475;46.614;13.888;2024-02-14T07:38:55;7.68;;;3.92;;
47713;SDS011;33475;46.614;13.888;2024-02-14T07:41:22;4.97;;;2.60;;
47713;SDS011;33475;46.614;13.888;2024-02-14T07:43:48;6.72;;;3.20;;
47713;SDS011;33475;46.614;13.888;2024-02-14T07:46:20;5.20;;;2.10;;
47713;SDS011;33475;46.614;13.888;2024-02-14T07:48:47;11.07;;;3.28;;
47713;SDS011;33475;46.614;13.888;2024-02-14T07:51:13;11.82;;;2.88;;
47713;SDS011;33475;46.614;13.888;2024-02-14T07:53:40;13.85;;;2.78;;
47713;SDS011;33475;46.614;13.888;2024-02-14T07:56:06;6.78;;;4.00;;
47713;SDS011;33475;46.614;13.888;2024-02-14T07:58:32;7.78;;;3.10;;
47713;SDS011;33475;46.614;13.888;2024-02-14T08:00:58;19.25;;;3.45;;
47713;SDS011;33475;46.614;13.888;2024-02-14T08:03:25;5.18;;;3.33;;
47713;SDS011;33475;46.614;13.888;2024-02-14T08:05:51;9.63;;;3.05;;
47713;SDS011;33475;46.614;13.888;2024-02-14T08:08:17;5.55;;;3.22;;
47713;SDS011;33475;46.614;13.888;2024-02-14T08:10:43;3.78;;;2.53;;
47713;SDS011;33475;46.614;13.888;2024-02-14T08:13:09;11.75;;;3.00;;
47713;SDS011;33475;46.614;13.888;2024-02-14T08:15:40;6.85;;;2.70;;
47713;SDS011;33475;46.614;13.888;2024-02-14T08:18:06;8.20;;;2.03;;
47713;SDS011;33475;46.614;13.888;2024-02-14T08:20:32;12.32;;;2.67;;
47713;SDS011;33475;46.614;13.888;2024-02-14T08:22:59;8.90;;;3.13;;
47713;SDS011;33475;46.614;13.888;2024-02-14T08:25:25;7.55;;;2.92;;
47713;SDS011;33475;46.614;13.888;2024-02-14T08:27:52;12.23;;;2.50;;
47713;SDS011;33475;46.614;13.888;2024-02-14T08:30:18;6.57;;;2.25;;
47713;SDS011;33475;46.614;13.888;2024-02-14T08:32:45;10.88;;;2.40;;
47713;SDS011;33475;46.614;13.888;2024-02-14T08:35:11;7.20;;;1.60;;
47713;SDS011;33475;46.614;13.888;2024-02-14T08:37:39;8.18;;;2.13;;
47713;SDS011;33475;46.614;13.888;2024-02-14T08:40:06;3.05;;;2.13;;
47713;SDS011;33475;46.614;13.888;2024-02-14T08:42:35;6.78;;;1.70;;
47713;SDS011;33475;46.614;13.888;2024-02-14T08:45:02;9.15;;;2.50;;
47713;SDS011;33475;46.614;13.888;2024-02-14T08:47:28;6.47;;;2.78;;
47713;SDS011;33475;46.614;13.888;2024-02-14T08:49:55;6.30;;;2.10;;
47713;SDS011;33475;46.614;13.888;2024-02-14T08:52:21;14.18;;;1.25;;
47713;SDS011;33475;46.614;13.888;2024-02-14T08:54:47;4.47;;;1.35;;
47713;SDS011;33475;46.614;13.888;2024-02-14T08:57:13;27.83;;;3.13;;
47713;SDS011;33475;46.614;13.888;2024-02-14T08:59:39;3.60;;;1.13;;
47713;SDS011;33475;46.614;13.888;2024-02-14T09:02:08;2.05;;;1.13;;
47713;SDS011;33475;46.614;13.888;2024-02-14T09:04:34;3.63;;;2.00;;
47713;SDS011;33475;46.614;13.888;2024-02-14T09:07:01;5.88;;;1.30;;
47713;SDS011;33475;46.614;13.888;2024-02-14T09:09:27;11.93;;;1.30;;
47713;SDS011;33475;46.614;13.888;2024-02-14T09:11:53;9.15;;;1.08;;
47713;SDS011;33475;46.614;13.888;2024-02-14T09:14:20;4.28;;;1.13;;
47713;SDS011;33475;46.614;13.888;2024-02-14T09:16:46;2.08;;;1.20;;
47713;SDS011;33475;46.614;13.888;2024-02-14T09:19:12;4.80;;;1.10;;
47713;SDS011;33475;46.614;13.888;2024-02-14T09:21:38;3.30;;;1.27;;
47713;SDS011;33475;46.614;13.888;2024-02-14T09:24:05;1.67;;;1.30;;
47713;SDS011;33475;46.614;13.888;2024-02-14T09:26:32;8.07;;;1.20;;
47713;SDS011;33475;46.614;13.888;2024-02-14T09:28:58;17.73;;;1.48;;
47713;SDS011;33475;46.614;13.888;2024-02-14T09:31:24;12.30;;;2.40;;
47713;SDS011;33475;46.614;13.888;2024-02-14T09:33:50;1.70;;;1.00;;
47713;SDS011;33475;46.614;13.888;2024-02-14T09:36:21;1.70;;;1.02;;
47713;SDS011;33475;46.614;13.888;2024-02-14T09:38:49;2.10;;;1.30;;
47713;SDS011;33475;46.614;13.888;2024-02-14T09:41:17;3.50;;;1.10;;
47713;SDS011;33475;46.614;13.888;2024-02-14T09:43:45;6.15;;;0.82;;
47713;SDS011;33475;46.614;13.888;2024-02-14T09:46:14;2.17;;;0.75;;
47713;SDS011;33475;46.614;13.888;2024-02-14T09:48:44;6.25;;;1.20;;
47713;SDS011;33475;46.614;13.888;2024-02-14T09:51:11;3.75;;;1.00;;
47713;SDS011;33475;46.614;13.888;2024-02-14T09:53:40;1.25;;;0.90;;
47713;SDS011;33475;46.614;13.888;2024-02-14T09:56:10;3.08;;;1.10;;
47713;SDS011;33475;46.614;13.888;2024-02-14T09:58:39;3.28;;;1.40;;
47713;SDS011;33475;46.614;13.888;2024-02-14T10:01:06;6.82;;;1.73;;
47713;SDS011;33475;46.614;13.888;2024-02-14T10:03:32;6.35;;;1.73;;
47713;SDS011;33475;46.614;13.888;2024-02-14T10:06:00;5.20;;;1.27;;
47713;SDS011;33475;46.614;13.888;2024-02-14T10:08:27;2.47;;;0.77;;
47713;SDS011;33475;46.614;13.888;2024-02-14T10:10:56;1.42;;;0.90;;
47713;SDS011;33475;46.614;13.888;2024-02-14T10:13:23;2.88;;;1.00;;
47713;SDS011;33475;46.614;13.888;2024-02-14T10:15:49;2.20;;;1.25;;
47713;SDS011;33475;46.614;13.888;2024-02-14T10:18:15;4.30;;;1.27;;
47713;SDS011;33475;46.614;13.888;2024-02-14T10:20:51;5.30;;;1.08;;
47713;SDS011;33475;46.614;13.888;2024-02-14T10:23:18;8.55;;;1.42;;
47713;SDS011;33475;46.614;13.888;2024-02-14T10:25:45;2.50;;;0.90;;
47713;SDS011;33475;46.614;13.888;2024-02-14T10:28:11;5.03;;;1.00;;
47713;SDS011;33475;46.614;13.888;2024-02-14T10:30:37;4.10;;;1.27;;
47713;SDS011;33475;46.614;13.888;2024-02-14T10:33:05;6.70;;;1.05;;
47713;SDS011;33475;46.614;13.888;2024-02-14T10:35:32;3.28;;;1.25;;
47713;SDS011;33475;46.614;13.888;2024-02-14T10:37:58;8.10;;;1.58;;
47713;SDS011;33475;46.614;13.888;2024-02-14T10:40:31;5.18;;;1.05;;
47713;SDS011;33475;46.614;13.888;2024-02-14T10:42:58;7.40;;;1.50;;
47713;SDS011;33475;46.614;13.888;2024-02-14T10:45:25;2.03;;;1.17;;
47713;SDS011;33475;46.614;13.888;2024-02-14T10:47:52;4.07;;;1.10;;
47713;SDS011;33475;46.614;13.888;2024-02-14T10:50:22;4.43;;;0.82;;
47713;SDS011;33475;46.614;13.888;2024-02-14T10:52:48;2.97;;;0.90;;
47713;SDS011;33475;46.614;13.888;2024-02-14T10:55:15;6.03;;;1.00;;
47713;SDS011;33475;46.614;13.888;2024-02-14T10:57:43;1.70;;;1.00;;
47713;SDS011;33475;46.614;13.888;2024-02-14T11:00:10;5.60;;;1.05;;
47713;SDS011;33475;46.614;13.888;2024-02-14T11:02:39;2.10;;;0.77;;
47713;SDS011;33475;46.614;13.888;2024-02-14T11:05:11;2.15;;;1.00;;
47713;SDS011;33475;46.614;13.888;2024-02-14T11:07:43;2.95;;;0.85;;
47713;SDS011;33475;46.614;13.888;2024-02-14T11:10:12;2.67;;;0.98;;
47713;SDS011;33475;46.614;13.888;2024-02-14T11:12:39;4.18;;;1.10;;
47713;SDS011;33475;46.614;13.888;2024-02-14T11:15:16;3.38;;;1.73;;
47713;SDS011;33475;46.614;13.888;2024-02-14T11:17:43;8.27;;;1.70;;
47713;SDS011;33475;46.614;13.888;2024-02-14T11:23:03;7.75;;;1.58;;
47713;SDS011;33475;46.614;13.888;2024-02-14T11:25:34;2.05;;;1.27;;
47713;SDS011;33475;46.614;13.888;2024-02-14T11:28:01;3.13;;;1.50;;
47713;SDS011;33475;46.614;13.888;2024-02-14T11:30:31;5.13;;;1.42;;
47713;SDS011;33475;46.614;13.888;2024-02-14T11:33:17;1.83;;;1.35;;
47713;SDS011;33475;46.614;13.888;2024-02-14T11:35:45;4.50;;;1.30;;
47713;SDS011;33475;46.614;13.888;2024-02-14T11:38:11;8.75;;;1.98;;
47713;SDS011;33475;46.614;13.888;2024-02-14T11:40:38;7.97;;;1.40;;
47713;SDS011;33475;46.614;13.888;2024-02-14T11:43:05;4.15;;;1.20;;
47713;SDS011;33475;46.614;13.888;2024-02-14T11:45:31;4.53;;;0.90;;
47713;SDS011;33475;46.614;13.888;2024-02-14T11:47:57;7.22;;;1.40;;
47713;SDS011;33475;46.614;13.888;2024-02-14T11:50:23;6.63;;;1.35;;
47713;SDS011;33475;46.614;13.888;2024-02-14T11:52:50;1.38;;;0.80;;
47713;SDS011;33475;46.614;13.888;2024-02-14T11:55:17;4.75;;;0.95;;
47713;SDS011;33475;46.614;13.888;2024-02-14T11:57:43;2.38;;;1.02;;
47713;SDS011;33475;46.614;13.888;2024-02-14T12:00:13;4.93;;;0.95;;
47713;SDS011;33475;46.614;13.888;2024-02-14T12:02:39;5.40;;;0.90;;
47713;SDS011;33475;46.614;13.888;2024-02-14T12:05:06;1.77;;;0.60;;
47713;SDS011;33475;46.614;13.888;2024-02-14T12:07:32;2.13;;;1.08;;
47713;SDS011;33475;46.614;13.888;2024-02-14T12:09:59;5.25;;;1.17;;
47713;SDS011;33475;46.614;13.888;2024-02-14T12:12:25;1.40;;;0.80;;
47713;SDS011;33475;46.614;13.888;2024-02-14T12:14:54;2.13;;;0.90;;
47713;SDS011;33475;46.614;13.888;2024-02-14T12:17:20;1.65;;;0.77;;
47713;SDS011;33475;46.614;13.888;2024-02-14T12:19:49;2.90;;;0.80;;
47713;SDS011;33475;46.614;13.888;2024-02-14T12:22:17;5.32;;;1.15;;
47713;SDS011;33475;46.614;13.888;2024-02-14T12:24:44;2.10;;;0.70;;
47713;SDS011;33475;46.614;13.888;2024-02-14T12:27:12;3.38;;;0.63;;
47713;SDS011;33475;46.614;13.888;2024-02-14T12:29:38;5.93;;;0.95;;
47713;SDS011;33475;46.614;13.888;2024-02-14T12:32:05;2.15;;;0.80;;
47713;SDS011;33475;46.614;13.888;2024-02-14T12:34:32;1.98;;;0.60;;
47713;SDS011;33475;46.614;13.888;2024-02-14T12:36:58;1.45;;;0.63;;
47713;SDS011;33475;46.614;13.888;2024-02-14T12:39:26;6.93;;;0.93;;
47713;SDS011;33475;46.614;13.888;2024-02-14T12:41:52;2.38;;;0.73;;
47713;SDS011;33475;46.614;13.888;2024-02-14T12:44:20;10.25;;;0.93;;
47713;SDS011;33475;46.614;13.888;2024-02-14T12:46:46;2.05;;;0.57;;
47713;SDS011;33475;46.614;13.888;2024-02-14T12:49:13;3.90;;;0.70;;
47713;SDS011;33475;46.614;13.888;2024-02-14T12:51:39;4.03;;;0.73;;
47713;SDS011;33475;46.614;13.888;2024-02-14T12:54:05;4.13;;;0.50;;
47713;SDS011;33475;46.614;13.888;2024-02-14T12:56:34;0.77;;;0.60;;
47713;SDS011;33475;46.614;13.888;2024-02-14T12:59:00;2.05;;;0.40;;
47713;SDS011;33475;46.614;13.888;2024-02-14T13:01:27;4.38;;;0.70;;
47713;SDS011;33475;46.614;13.888;2024-02-14T13:03:53;1.73;;;0.50;;
47713;SDS011;33475;46.614;13.888;2024-02-14T13:06:19;1.73;;;1.02;;
47713;SDS011;33475;46.614;13.888;2024-02-14T13:08:45;1.98;;;0.70;;
47713;SDS011;33475;46.614;13.888;2024-02-14T13:11:12;1.95;;;0.70;;
47713;SDS011;33475;46.614;13.888;2024-02-14T13:13:40;2.38;;;0.68;;
47713;SDS011;33475;46.614;13.888;2024-02-14T13:16:07;7.75;;;0.70;;
47713;SDS011;33475;46.614;13.888;2024-02-14T13:18:33;1.52;;;0.70;;
47713;SDS011;33475;46.614;13.888;2024-02-14T13:21:00;1.25;;;0.85;;
47713;SDS011;33475;46.614;13.888;2024-02-14T13:23:26;1.67;;;0.90;;
47713;SDS011;33475;46.614;13.888;2024-02-14T13:25:53;2.63;;;0.70;;
47713;SDS011;33475;46.614;13.888;2024-02-14T13:28:19;5.57;;;1.77;;
47713;SDS011;33475;46.614;13.888;2024-02-14T13:30:45;3.55;;;2.75;;
47713;SDS011;33475;46.614;13.888;2024-02-14T13:33:13;2.20;;;1.02;;
47713;SDS011;33475;46.614;13.888;2024-02-14T13:35:39;4.72;;;1.77;;
47713;SDS011;33475;46.614;13.888;2024-02-14T13:38:05;4.78;;;1.02;;
47713;SDS011;33475;46.614;13.888;2024-02-14T13:40:32;1.30;;;1.08;;
47713;SDS011;33475;46.614;13.888;2024-02-14T13:42:58;1.35;;;0.70;;
47713;SDS011;33475;46.614;13.888;2024-02-14T13:45:24;1.63;;;0.85;;
47713;SDS011;33475;46.614;13.888;2024-02-14T13:47:51;1.73;;;0.70;;
47713;SDS011;33475;46.614;13.888;2024-02-14T13:50:19;1.65;;;0.85;;
47713;SDS011;33475;46.614;13.888;2024-02-14T13:52:46;13.55;;;1.60;;
47713;SDS011;33475;46.614;13.888;2024-02-14T13:55:12;1.00;;;0.80;;
47713;SDS011;33475;46.614;13.888;2024-02-14T13:57:39;3.05;;;1.63;;
47713;SDS011;33475;46.614;13.888;2024-02-14T14:00:07;10.57;;;9.57;;
47713;SDS011;33475;46.614;13.888;2024-02-14T14:02:37;4.90;;;3.22;;
47713;SDS011;33475;46.614;13.888;2024-02-14T14:05:07;3.15;;;1.90;;
47713;SDS011;33475;46.614;13.888;2024-02-14T14:07:40;7.50;;;4.55;;
47713;SDS011;33475;46.614;13.888;2024-02-14T14:10:06;1.25;;;1.15;;
47713;SDS011;33475;46.614;13.888;2024-02-14T14:12:33;3.88;;;1.83;;
47713;SDS011;33475;46.614;13.888;2024-02-14T14:15:00;5.05;;;2.67;;
47713;SDS011;33475;46.614;13.888;2024-02-14T14:17:26;16.10;;;11.82;;
47713;SDS011;33475;46.614;13.888;2024-02-14T14:19:53;1.30;;;1.10;;
47713;SDS011;33475;46.614;13.888;2024-02-14T14:22:20;10.95;;;5.85;;
47713;SDS011;33475;46.614;13.888;2024-02-14T14:24:46;5.65;;;1.55;;
47713;SDS011;33475;46.614;13.888;2024-02-14T14:27:13;10.23;;;9.23;;
47713;SDS011;33475;46.614;13.888;2024-02-14T14:29:40;7.60;;;4.80;;
47713;SDS011;33475;46.614;13.888;2024-02-14T14:32:07;1.33;;;1.10;;